Time;durP1;ratioP1;P1;durP2;ratioP2;P2;SDS_P1;SDS_P2;PMS_P1;PMS_P2;Temp;Humidity;BMP_temperature;BMP_pressure;BME280_temperature;BME280_humidity;BME280_pressure;Samples;Min_cycle;Max_cycle;Signal;HPM_P1;HPM_P2
2023/02/08 00:01:08;;;;;;;43.83;25.90;;;-1.70;51.10;;;;;;5123284;28;20201;-83
2023/02/08 00:03:35;;;;;;;42.63;26.10;;;;;;;;;;5122103;28;20560;-82
2023/02/08 00:06:02;;;;;;;41.30;26.08;;;;;;;;;;5121404;28;20313;-83
2023/02/08 00:08:29;;;;;;;37.88;24.75;;;;;;;;;;5127510;28;20189;-83
2023/02/08 00:10:56;;;;;;;52.45;28.00;;;;;;;;;;5141629;28;20248;-83
2023/02/08 00:13:23;;;;;;;40.63;24.90;;;;;;;;;;5130651;28;20255;-83
2023/02/08 00:15:54;;;;;;;44.65;26.42;;;-1.80;1.00;;;;;;5123678;28;20221;-83
2023/02/08 00:18:22;;;;;;;44.22;25.42;;;-1.90;1.00;;;;;;5118592;28;20185;-83
2023/02/08 00:20:49;;;;;;;40.58;25.48;;;;;;;;;;5125283;28;20209;-82
2023/02/08 00:23:16;;;;;;;40.42;26.50;;;-1.60;99.90;;;;;;5133049;28;20209;-82
2023/02/08 00:25:43;;;;;;;41.47;24.13;;;;;;;;;;5126978;28;20304;-83
2023/02/08 00:28:14;;;;;;;47.53;26.23;;;-1.90;1.00;;;;;;5119934;28;20705;-83
2023/02/08 00:30:41;;;;;;;49.78;26.77;;;-2.00;92.60;;;;;;5119798;28;20188;-82
2023/02/08 00:33:10;;;;;;;55.67;24.15;;;-2.00;86.30;;;;;;5119950;28;20225;-82
2023/02/08 00:35:37;;;;;;;49.60;26.20;;;-2.00;23.40;;;;;;5128195;28;20252;-82
2023/02/08 00:38:04;;;;;;;39.95;22.98;;;;;;;;;;5132642;28;20619;-82
2023/02/08 00:40:31;;;;;;;42.08;24.75;;;;;;;;;;5132238;28;20236;-82
2023/02/08 00:42:58;;;;;;;48.65;26.85;;;-2.20;1.00;;;;;;5131482;28;20284;-82
2023/02/08 00:45:25;;;;;;;47.28;27.35;;;;;;;;;;5126607;28;20304;-83
2023/02/08 00:47:52;;;;;;;39.10;23.80;;;;;;;;;;5120314;28;20213;-81
2023/02/08 00:50:21;;;;;;;48.42;25.73;;;-2.00;1.00;;;;;;5120126;28;20198;-83
2023/02/08 00:52:48;;;;;;;47.80;28.08;;;;;;;;;;5129215;28;20227;-82
2023/02/08 00:55:15;;;;;;;42.20;27.05;;;;;;;;;;5133303;28;20240;-83
2023/02/08 00:57:42;;;;;;;44.08;26.65;;;;;;;;;;5131989;28;20273;-83
2023/02/08 01:00:10;;;;;;;50.53;24.85;;;-2.00;28.10;;;;;;5118859;28;20663;-83
2023/02/08 01:02:38;;;;;;;38.88;25.23;;;-2.00;68.60;;;;;;5119028;28;20371;-83
2023/02/08 01:05:06;;;;;;;46.17;26.42;;;-2.10;99.90;;;;;;5123067;28;20211;-82
2023/02/08 01:07:36;;;;;;;42.63;26.13;;;-2.10;99.90;;;;;;5123614;28;20240;-82
2023/02/08 01:10:03;;;;;;;53.40;26.48;;;;;;;;;;5126295;28;20200;-82
2023/02/08 01:12:30;;;;;;;52.97;26.67;;;;;;;;;;5123093;28;20316;-82
2023/02/08 01:14:58;;;;;;;42.35;28.23;;;;;;;;;;5129663;28;20213;-83
2023/02/08 01:17:24;;;;;;;43.30;25.42;;;-2.40;1.00;;;;;;5130521;28;20208;-81
2023/02/08 01:19:51;;;;;;;51.47;30.10;;;;;;;;;;5126482;28;20297;-83
2023/02/08 01:22:19;;;;;;;44.00;28.67;;;;;;;;;;5125762;28;20292;-82
2023/02/08 01:24:47;;;;;;;42.65;27.42;;;-2.00;1.00;;;;;;5123514;28;20219;-82
2023/02/08 01:27:14;;;;;;;56.97;27.48;;;-2.10;1.00;;;;;;5127931;28;20211;-83
2023/02/08 01:29:41;;;;;;;56.65;26.67;;;;;;;;;;5136018;28;20201;-82
2023/02/08 01:32:08;;;;;;;52.05;28.15;;;;;;;;;;5135884;28;20241;-82
2023/02/08 01:34:35;;;;;;;47.72;26.35;;;-2.30;1.00;;;;;;5133567;28;20265;-82
2023/02/08 01:37:02;;;;;;;39.63;26.27;;;;;;;;;;5128285;28;20767;-83
2023/02/08 01:39:29;;;;;;;45.90;26.35;;;;;;;;;;5120986;28;20205;-83
2023/02/08 01:41:57;;;;;;;39.15;24.17;;;-2.00;99.90;;;;;;5118782;28;20204;-82
2023/02/08 01:45:01;;;;;;;49.45;29.30;;;-2.30;99.90;;;;;;5118718;28;20205;-83
2023/02/08 01:47:28;;;;;;;48.17;27.88;;;;;;;;;;5119294;28;20205;-82
2023/02/08 01:49:56;;;;;;;44.38;27.90;;;-2.20;1.00;;;;;;5119209;28;20203;-82
2023/02/08 01:52:26;;;;;;;47.58;28.38;;;-2.30;99.90;;;;;;5126838;28;20690;-82
2023/02/08 01:54:57;;;;;;;46.75;29.73;;;-2.20;1.00;;;;;;5133773;28;20197;-82
2023/02/08 01:57:27;;;;;;;47.15;26.65;;;-2.20;1.00;;;;;;5130650;28;20241;-82
2023/02/08 01:59:58;;;;;;;52.47;29.23;;;-2.20;1.00;;;;;;5124912;28;20197;-83
2023/02/08 02:02:26;;;;;;;42.03;25.27;;;-2.30;1.00;;;;;;5136765;28;20211;-81
2023/02/08 02:04:53;;;;;;;42.70;26.67;;;-2.00;26.10;;;;;;5138552;28;20244;-82
2023/02/08 02:07:22;;;;;;;40.58;25.50;;;-2.30;1.00;;;;;;5129458;28;20287;-82
2023/02/08 02:09:53;;;;;;;35.85;23.45;;;-2.30;99.90;;;;;;5118766;28;20201;-82
2023/02/08 02:12:20;;;;;;;38.95;23.63;;;;;;;;;;5117722;28;20205;-82
2023/02/08 02:14:49;;;;;;;43.97;23.35;;;;;;;;;;5118025;28;20201;-82
2023/02/08 02:17:18;;;;;;;40.53;24.67;;;-2.50;1.00;;;;;;5121530;28;20193;-83
2023/02/08 02:19:54;;;;;;;44.88;23.88;;;-2.50;99.90;;;;;;5119882;28;20223;-83
2023/02/08 02:22:51;;;;;;;39.08;23.23;;;-2.50;1.00;;;;;;5121043;28;20582;-82
2023/02/08 02:26:00;;;;;;;42.58;22.65;;;-2.50;1.00;;;;;;5080859;28;20651;-83
2023/02/08 02:29:14;;;;;;;41.35;24.15;;;-2.40;1.00;;;;;;5109852;28;20200;-83
2023/02/08 02:32:12;;;;;;;38.25;23.27;;;-2.50;99.90;;;;;;5055687;28;20211;-83
2023/02/08 02:34:43;;;;;;;35.10;20.65;;;-2.60;99.90;;;;;;5055861;28;20205;-82
2023/02/08 02:37:23;;;;;;;37.90;22.95;;;-2.60;99.90;;;;;;5077503;28;20237;-83
2023/02/08 02:40:00;;;;;;;32.00;20.33;;;-2.70;99.90;;;;;;5097800;28;20190;-81
2023/02/08 02:45:26;;;;;;;37.63;21.65;;;-2.80;99.90;;;;;;5097503;28;20220;-81
2023/02/08 02:48:02;;;;;;;41.00;22.88;;;-2.80;99.90;;;;;;5098430;28;20185;-82
2023/02/08 02:50:33;;;;;;;35.58;22.63;;;-2.80;99.90;;;;;;5099890;28;20193;-81
2023/02/08 02:53:03;;;;;;;36.50;22.40;;;-2.90;99.90;;;;;;5100145;28;20209;-82
2023/02/08 02:55:36;;;;;;;32.92;21.60;;;-3.00;99.90;;;;;;5110761;28;20289;-82
2023/02/08 02:58:05;;;;;;;36.83;21.13;;;-3.00;99.90;;;;;;5113482;28;20213;-82
2023/02/08 03:00:33;;;;;;;35.05;22.05;;;-2.90;99.90;;;;;;5113922;28;20225;-82
2023/02/08 03:03:01;;;;;;;41.00;21.77;;;-2.90;99.90;;;;;;5101499;28;20664;-82
2023/02/08 03:05:29;;;;;;;37.35;21.65;;;-2.80;19.70;;;;;;5097784;28;20230;-83
2023/02/08 03:08:10;;;;;;;35.13;21.77;;;-2.90;1.00;;;;;;5097627;28;20236;-83
2023/02/08 03:10:58;;;;;;;31.70;21.45;;;-2.90;99.90;;;;;;5098343;28;20190;-83
2023/02/08 03:13:34;;;;;;;29.48;19.63;;;-2.90;1.00;;;;;;5105448;28;20573;-83
2023/02/08 03:16:12;;;;;;;41.88;21.58;;;-3.40;99.90;;;;;;5099184;28;20225;-83
2023/02/08 03:18:50;;;;;;;33.08;21.25;;;-3.10;99.90;;;;;;5099770;28;20186;-83
2023/02/08 03:21:24;;;;;;;33.90;19.58;;;-3.20;99.90;;;;;;5101352;28;20192;-83
2023/02/08 03:24:00;;;;;;;29.35;17.05;;;-3.30;99.90;;;;;;5105607;28;20212;-82
2023/02/08 03:26:35;;;;;;;33.83;19.73;;;-3.20;99.90;;;;;;5103368;28;20228;-81
2023/02/08 03:29:11;;;;;;;27.65;16.95;;;-3.20;66.00;;;;;;5098491;28;20200;-82
2023/02/08 03:31:41;;;;;;;27.85;18.38;;;-3.20;99.90;;;;;;5097442;28;20261;-82
2023/02/08 03:34:16;;;;;;;35.70;19.25;;;-3.20;99.90;;;;;;5097199;28;20230;-83
2023/02/08 03:36:47;;;;;;;33.33;19.77;;;-3.10;99.90;;;;;;5098139;28;20239;-82
2023/02/08 03:39:19;;;;;;;34.92;19.70;;;-3.10;1.00;;;;;;5097969;28;20198;-82
2023/02/08 03:41:49;;;;;;;32.08;18.77;;;-3.00;1.00;;;;;;5099490;28;20186;-83
2023/02/08 03:44:20;;;;;;;28.63;18.70;;;-3.00;1.00;;;;;;5100051;28;20336;-83
2023/02/08 03:46:51;;;;;;;34.83;17.67;;;-3.00;1.00;;;;;;5100080;28;20754;-83
2023/02/08 03:49:26;;;;;;;32.38;19.05;;;-3.00;1.00;;;;;;5100038;28;20273;-82
2023/02/08 03:51:56;;;;;;;27.52;17.50;;;-3.00;1.00;;;;;;5101169;28;20196;-82
2023/02/08 03:54:27;;;;;;;28.83;16.58;;;-3.00;1.00;;;;;;5100835;28;20226;-82
2023/02/08 03:56:59;;;;;;;21.10;16.20;;;-2.70;53.70;;;;;;5101195;28;20248;-82
2023/02/08 03:59:29;;;;;;;26.35;16.95;;;-3.00;99.90;;;;;;5101836;28;20186;-83
2023/02/08 04:01:59;;;;;;;32.00;19.38;;;-3.10;99.90;;;;;;5101896;28;20202;-82
2023/02/08 04:04:33;;;;;;;26.98;17.25;;;-3.10;1.00;;;;;;5100644;28;20633;-81
2023/02/08 04:07:00;;;;;;;26.38;16.98;;;-2.80;99.90;;;;;;5100030;28;20218;-83
2023/02/08 04:09:27;;;;;;;26.15;17.17;;;;;;;;;;5100548;28;20212;-83
2023/02/08 04:11:55;;;;;;;27.83;15.73;;;;;;;;;;5100609;28;20616;-82
2023/02/08 04:14:21;;;;;;;25.60;17.23;;;-3.00;1.00;;;;;;5099842;28;20451;-83
2023/02/08 04:16:48;;;;;;;30.52;19.35;;;;;;;;;;5110613;28;20225;-82
2023/02/08 04:19:15;;;;;;;27.88;16.48;;;-3.20;99.90;;;;;;5115723;28;20182;-82
2023/02/08 04:21:44;;;;;;;24.75;15.52;;;-3.10;1.00;;;;;;5116609;28;20202;-82
2023/02/08 04:24:11;;;;;;;27.45;16.80;;;;;;;;;;5117182;28;20225;-82
2023/02/08 04:26:38;;;;;;;27.45;15.77;;;;;;;;;;5117069;28;20261;-82
2023/02/08 04:29:05;;;;;;;21.13;15.90;;;;;;;;;;5115359;28;20198;-82
2023/02/08 04:31:32;;;;;;;22.80;16.58;;;;;;;;;;5114974;28;20303;-83
2023/02/08 04:33:59;;;;;;;28.73;14.82;;;;;;;;;;5108380;28;20248;-83
2023/02/08 04:36:26;;;;;;;25.88;15.00;;;;;;;;;;5106626;28;20257;-83
2023/02/08 04:38:54;;;;;;;22.73;14.20;;;-3.20;30.00;;;;;;5105441;28;20208;-83
2023/02/08 04:41:22;;;;;;;27.45;15.68;;;;;;;;;;5105267;28;20198;-83
2023/02/08 04:43:49;;;;;;;30.75;15.65;;;;;;;;;;5105770;28;20232;-82
2023/02/08 04:46:16;;;;;;;29.65;15.70;;;;;;;;;;5114736;28;20269;-82
2023/02/08 04:48:43;;;;;;;34.67;19.58;;;;;;;;;;5114896;28;20253;-82
2023/02/08 04:51:10;;;;;;;23.80;16.02;;;;;;;;;;5114737;28;20232;-82
2023/02/08 04:53:37;;;;;;;26.27;16.00;;;;;;;;;;5112696;28;20226;-81
2023/02/08 04:56:06;;;;;;;25.05;15.43;;;-3.10;1.00;;;;;;5109816;28;20648;-83
2023/02/08 04:58:33;;;;;;;26.40;15.38;;;;;;;;;;5106970;28;20280;-82
2023/02/08 05:01:00;;;;;;;28.02;17.23;;;;;;;;;;5105270;28;20269;-83
2023/02/08 05:03:27;;;;;;;28.83;16.77;;;;;;;;;;5106882;28;20261;-82
2023/02/08 05:05:58;;;;;;;28.95;15.52;;;-3.30;1.00;;;;;;5111539;28;20249;-83
2023/02/08 05:08:25;;;;;;;27.80;16.27;;;;;;;;;;5106997;28;20202;-83
2023/02/08 05:10:52;;;;;;;23.88;16.10;;;;;;;;;;5110134;28;20228;-82
2023/02/08 05:13:20;;;;;;;27.13;17.00;;;-3.30;1.00;;;;;;5102306;28;20328;-83
2023/02/08 05:15:47;;;;;;;23.92;15.68;;;;;;;;;;5102867;28;20703;-83
2023/02/08 05:18:15;;;;;;;24.27;15.40;;;;;;;;;;5106237;28;20208;-82
2023/02/08 05:20:42;;;;;;;33.88;17.83;;;;;;;;;;5101663;28;20213;-83
2023/02/08 05:23:09;;;;;;;30.63;16.38;;;;;;;;;;5101489;28;20576;-83
2023/02/08 05:25:36;;;;;;;29.85;17.05;;;;;;;;;;5100016;28;20224;-83
2023/02/08 05:28:03;;;;;;;22.23;15.23;;;;;;;;;;5100993;28;20206;-83
2023/02/08 05:30:31;;;;;;;39.47;17.00;;;;;;;;;;5099686;28;20205;-82
2023/02/08 05:32:59;;;;;;;35.65;16.75;;;;;;;;;;5100438;28;20671;-83
2023/02/08 05:35:26;;;;;;;30.02;15.85;;;;;;;;;;5100248;28;20236;-83
2023/02/08 05:37:53;;;;;;;22.60;16.55;;;;;;;;;;5100535;28;20212;-83
2023/02/08 05:40:20;;;;;;;34.03;15.88;;;;;;;;;;5100089;28;20735;-84
2023/02/08 05:42:47;;;;;;;37.17;20.75;;;;;;;;;;5097960;28;20440;-84
2023/02/08 05:45:14;;;;;;;29.42;18.90;;;;;;;;;;5099758;28;20228;-83
2023/02/08 05:47:42;;;;;;;31.80;16.20;;;-3.60;99.90;;;;;;5100073;28;20217;-83
2023/02/08 05:50:10;;;;;;;27.80;17.20;;;-3.60;48.20;;;;;;5099724;28;20202;-83
2023/02/08 05:52:37;;;;;;;33.60;17.02;;;;;;;;;;5099899;28;20238;-82
2023/02/08 05:55:04;;;;;;;32.42;18.55;;;;;;;;;;5100707;28;20225;-83
2023/02/08 05:57:31;;;;;;;29.50;17.73;;;;;;;;;;5104413;28;20202;-83
2023/02/08 05:59:59;;;;;;;31.20;18.30;;;;;;;;;;5103078;28;20236;-82
2023/02/08 06:02:26;;;;;;;30.30;18.15;;;;;;;;;;5101661;28;20293;-83
2023/02/08 06:04:54;;;;;;;38.13;21.77;;;-3.40;99.90;;;;;;5099778;28;20941;-83
2023/02/08 06:07:21;;;;;;;35.28;17.83;;;;;;;;;;5099684;28;20542;-83
2023/02/08 06:09:48;;;;;;;34.63;17.70;;;;;;;;;;5100750;28;20201;-83
2023/02/08 06:12:15;;;;;;;30.98;17.83;;;;;;;;;;5101630;28;20643;-83
2023/02/08 06:14:43;;;;;;;37.10;20.75;;;;;;;;;;5100834;28;20230;-83
2023/02/08 06:17:10;;;;;;;36.43;22.60;;;;;;;;;;5098211;28;20448;-83
2023/02/08 06:19:38;;;;;;;32.63;19.52;;;;;;;;;;5100327;28;20443;-84
2023/02/08 06:22:06;;;;;;;29.55;17.55;;;-3.50;1.00;;;;;;5101248;28;20202;-83
2023/02/08 06:24:33;;;;;;;29.92;16.70;;;;;;;;;;5100897;28;20203;-83
2023/02/08 06:27:00;;;;;;;35.55;18.60;;;;;;;;;;5100910;28;20222;-83
2023/02/08 06:29:27;;;;;;;31.02;19.20;;;;;;;;;;5100832;28;20202;-83
2023/02/08 06:31:54;;;;;;;30.23;17.38;;;;;;;;;;5100968;28;20694;-84
2023/02/08 06:34:22;;;;;;;35.33;19.73;;;;;;;;;;5101711;28;20227;-83
2023/02/08 06:36:49;;;;;;;32.70;18.35;;;;;;;;;;5103531;28;20324;-83
2023/02/08 06:39:18;;;;;;;35.55;20.38;;;-3.60;1.00;;;;;;5111951;28;20202;-83
2023/02/08 06:41:45;;;;;;;32.70;18.58;;;;;;;;;;5114150;28;20277;-82
2023/02/08 06:44:12;;;;;;;35.92;20.70;;;;;;;;;;5117789;28;20247;-83
2023/02/08 06:46:39;;;;;;;36.00;20.35;;;;;;;;;;5102614;28;20308;-83
2023/02/08 06:49:06;;;;;;;41.53;21.75;;;;;;;;;;5102546;28;20229;-83
2023/02/08 06:51:33;;;;;;;42.58;22.15;;;;;;;;;;5103384;28;20284;-83
2023/02/08 06:54:00;;;;;;;38.08;20.60;;;;;;;;;;5103806;28;20221;-84
2023/02/08 06:56:29;;;;;;;28.50;18.88;;;-3.50;1.00;;;;;;5101721;28;20224;-83
2023/02/08 06:58:56;;;;;;;35.40;20.17;;;;;;;;;;5101233;28;20208;-83
2023/02/08 07:01:24;;;;;;;37.25;19.15;;;;;;;;;;5111381;28;20216;-82
2023/02/08 07:03:51;;;;;;;36.22;18.90;;;;;;;;;;5099179;28;20226;-83
2023/02/08 07:06:19;;;;;;;29.85;19.85;;;-3.60;99.90;;;;;;5097919;28;20222;-83
2023/02/08 07:08:47;;;;;;;39.00;19.23;;;-3.40;1.00;;;;;;5098459;28;20301;-84
2023/02/08 07:11:15;;;;;;;35.50;21.35;;;-3.30;99.90;;;;;;5099494;28;20202;-83
2023/02/08 07:13:47;;;;;;;37.45;19.23;;;-3.40;99.90;;;;;;5101709;28;20308;-83
2023/02/08 07:16:14;;;;;;;38.78;18.45;;;;;;;;;;5104949;28;20222;-83
2023/02/08 07:18:41;;;;;;;38.97;19.30;;;;;;;;;;5106272;28;20207;-83
2023/02/08 07:21:10;;;;;;;36.40;19.70;;;;;;;;;;5104693;28;20293;-83
2023/02/08 07:23:37;;;;;;;36.03;19.52;;;;;;;;;;5105092;28;20233;-83
2023/02/08 07:26:06;;;;;;;32.38;20.15;;;-3.20;99.90;;;;;;5103182;28;20309;-84
2023/02/08 07:28:33;;;;;;;39.25;22.33;;;;;;;;;;5105548;28;20288;-84
2023/02/08 07:31:05;;;;;;;34.78;20.42;;;-3.20;82.50;;;;;;5110852;28;20289;-84
2023/02/08 07:33:32;;;;;;;30.67;20.23;;;;;;;;;;5111327;28;20237;-84
2023/02/08 07:35:59;;;;;;;42.67;21.10;;;;;;;;;;5105444;28;20234;-84
2023/02/08 07:38:26;;;;;;;35.60;18.83;;;;;;;;;;5106528;28;20216;-84
2023/02/08 07:41:00;;;;;;;34.72;19.10;;;-3.10;1.00;;;;;;5113031;28;20297;-83
2023/02/08 07:43:27;;;;;;;33.53;18.95;;;;;;;;;;5110038;28;20190;-84
2023/02/08 07:45:54;;;;;;;37.05;19.52;;;;;;;;;;5104426;28;20632;-83
2023/02/08 07:48:23;;;;;;;36.90;22.15;;;-2.90;1.00;;;;;;5103949;28;20208;-83
2023/02/08 07:50:50;;;;;;;31.88;18.67;;;;;;;;;;5103854;28;20221;-83
2023/02/08 07:53:17;;;;;;;28.13;16.90;;;;;;;;;;5104435;28;20288;-83
2023/02/08 07:55:45;;;;;;;34.58;19.77;;;-2.80;99.90;;;;;;5104668;28;20236;-83
2023/02/08 07:58:13;;;;;;;32.58;19.92;;;;;;;;;;5104106;28;20196;-84
2023/02/08 08:00:41;;;;;;;30.67;17.92;;;;;;;;;;5104357;28;20214;-84
2023/02/08 08:03:08;;;;;;;32.55;19.52;;;;;;;;;;5110929;28;20198;-82
2023/02/08 08:05:37;;;;;;;39.75;20.38;;;-2.60;1.00;;;;;;5110928;28;20362;-84
2023/02/08 08:08:04;;;;;;;33.10;18.75;;;;;;;;;;5107912;28;20259;-83
2023/02/08 08:10:31;;;;;;;37.47;19.40;;;;;;;;;;5107110;28;20202;-83
2023/02/08 08:12:59;;;;;;;37.83;27.13;;;;;;;;;;5112102;28;20198;-83
2023/02/08 08:15:27;;;;;;;34.20;19.65;;;;;;;;;;5110891;28;20297;-83
2023/02/08 08:17:54;;;;;;;38.72;19.60;;;;;;;;;;5108199;28;20198;-83
2023/02/08 08:20:21;;;;;;;31.50;20.05;;;;;;;;;;5107570;28;20575;-84
2023/02/08 08:22:50;;;;;;;28.50;18.45;;;-2.30;99.90;;;;;;5105769;28;20285;-84
2023/02/08 08:25:17;;;;;;;33.40;21.77;;;-2.30;62.60;;;;;;5105248;28;20312;-84
2023/02/08 08:27:44;;;;;;;46.42;19.60;;;;;;;;;;5107773;28;20265;-83
2023/02/08 08:30:13;;;;;;;41.40;23.02;;;-2.20;13.60;;;;;;5109577;28;20750;-83
2023/02/08 08:32:40;;;;;;;38.42;21.50;;;;;;;;;;5106073;28;20289;-83
2023/02/08 08:35:08;;;;;;;41.58;22.52;;;;;;;;;;5113055;28;20222;-83
2023/02/08 08:37:35;;;;;;;46.55;22.90;;;;;;;;;;5114027;28;20218;-83
2023/02/08 08:40:05;;;;;;;35.83;21.10;;;-2.00;1.00;;;;;;5110128;28;20209;-84
2023/02/08 08:42:32;;;;;;;35.38;20.35;;;-2.00;1.00;;;;;;5106715;28;20257;-83
2023/02/08 08:44:59;;;;;;;39.72;21.65;;;;;;;;;;5102161;28;20269;-83
2023/02/08 08:47:27;;;;;;;35.85;20.23;;;;;;;;;;5102085;28;20208;-84
2023/02/08 08:49:54;;;;;;;39.55;19.38;;;;;;;;;;5102062;28;20572;-84
2023/02/08 08:52:21;;;;;;;38.65;20.33;;;;;;;;;;5103088;28;20636;-83
2023/02/08 08:54:48;;;;;;;34.10;19.30;;;;;;;;;;5103409;28;20222;-84
2023/02/08 08:57:16;;;;;;;39.00;22.05;;;;;;;;;;5104010;28;20221;-84
2023/02/08 08:59:43;;;;;;;38.13;21.52;;;;;;;;;;5107723;28;20269;-83
2023/02/08 09:02:12;;;;;;;42.75;22.80;;;-1.70;1.00;;;;;;5109628;28;20269;-82
2023/02/08 09:04:39;;;;;;;41.80;21.73;;;;;;;;;;5105440;28;20201;-83
2023/02/08 09:07:07;;;;;;;39.75;20.45;;;-1.70;99.90;;;;;;5102266;28;20229;-82
2023/02/08 09:09:34;;;;;;;42.08;22.85;;;;;;;;;;5102490;28;20296;-83
2023/02/08 09:12:02;;;;;;;42.13;22.25;;;-1.50;1.00;;;;;;5102559;28;20517;-83
2023/02/08 09:14:30;;;;;;;45.97;23.65;;;-1.40;99.90;;;;;;5102251;28;20719;-82
2023/02/08 09:16:57;;;;;;;47.05;24.35;;;;;;;;;;5101120;28;20217;-82
2023/02/08 09:19:24;;;;;;;38.20;22.38;;;;;;;;;;5102590;28;20552;-82
2023/02/08 09:21:51;;;;;;;40.90;24.15;;;-1.50;1.00;;;;;;5099004;28;20204;-79
2023/02/08 09:24:18;;;;;;;39.60;20.50;;;;;;;;;;5097838;28;20266;-79
2023/02/08 09:26:45;;;;;;;45.35;22.67;;;;;;;;;;5097693;28;20659;-78
2023/02/08 09:29:12;;;;;;;41.03;22.00;;;-1.10;1.00;;;;;;5097939;28;20206;-79
2023/02/08 09:31:40;;;;;;;36.63;21.25;;;-1.20;99.90;;;;;;5095442;28;20206;-79
2023/02/08 09:34:08;;;;;;;42.67;21.73;;;;;;;;;;5097291;28;20237;-79
2023/02/08 09:36:36;;;;;;;38.47;22.40;;;-1.10;99.90;;;;;;5097031;28;20233;-79
2023/02/08 09:39:07;;;;;;;37.60;22.48;;;-1.10;99.90;;;;;;5097463;28;20576;-78
2023/02/08 09:42:09;;;;;;;45.15;24.00;;;-1.10;99.90;;;;;;5095982;28;20190;-80
2023/02/08 09:44:42;;;;;;;41.42;23.88;;;-1.20;99.90;;;;;;5098628;28;20198;-79
2023/02/08 09:47:17;;;;;;;43.80;24.73;;;-1.10;99.90;;;;;;5097493;28;20221;-79
2023/02/08 09:49:55;;;;;;;39.67;23.40;;;-1.00;99.90;;;;;;5096693;28;20592;-80
2023/02/08 09:52:27;;;;;;;40.70;22.35;;;-0.90;99.90;;;;;;5096108;28;20277;-79
2023/02/08 09:54:59;;;;;;;39.67;23.33;;;-0.80;1.00;;;;;;5094958;28;20216;-77
2023/02/08 09:57:33;;;;;;;46.67;24.30;;;-0.70;1.00;;;;;;5095568;28;20236;-79
2023/02/08 10:00:02;;;;;;;40.53;24.08;;;-0.80;99.90;;;;;;5095849;28;20193;-80
2023/02/08 10:02:33;;;;;;;41.97;23.23;;;-1.00;1.00;;;;;;5095966;28;20208;-79
2023/02/08 10:05:03;;;;;;;43.78;23.45;;;-0.80;45.60;;;;;;5102088;28;20186;-79
2023/02/08 10:07:32;;;;;;;42.47;23.42;;;-0.90;1.00;;;;;;5102874;28;20186;-79
2023/02/08 10:10:01;;;;;;;48.17;22.35;;;-0.60;9.90;;;;;;5105315;28;20202;-79
2023/02/08 10:12:41;;;;;;;43.15;24.02;;;-0.60;24.70;;;;;;5106613;28;20194;-79
2023/02/08 10:15:20;;;;;;;52.38;25.40;;;-0.60;1.00;;;;;;5097202;28;20209;-78
2023/02/08 10:18:12;;;;;;;41.95;22.67;;;-0.30;1.00;;;;;;5096350;28;20196;-80
2023/02/08 10:20:52;;;;;;;36.83;23.40;;;-0.40;1.00;;;;;;5099377;28;20182;-79
2023/02/08 10:23:44;;;;;;;37.78;25.33;;;-0.40;1.00;;;;;;5094526;28;20190;-79
2023/02/08 10:26:18;;;;;;;47.70;24.75;;;-0.30;1.00;;;;;;5094988;28;20222;-79
2023/02/08 10:29:12;;;;;;;47.88;25.77;;;0.00;99.90;;;;;;5095472;28;20558;-80
2023/02/08 10:31:52;;;;;;;43.10;25.73;;;-0.20;1.00;;;;;;5095069;28;20201;-80
2023/02/08 10:34:37;;;;;;;40.22;22.70;;;-0.40;99.90;;;;;;5096502;28;20253;-80
2023/02/08 10:37:13;;;;;;;46.72;23.98;;;-0.10;1.00;;;;;;5096016;28;20273;-80
2023/02/08 10:39:41;;;;;;;40.17;22.40;;;;;;;;;;5096826;28;20253;-79
2023/02/08 10:42:14;;;;;;;40.05;23.90;;;0.10;1.00;;;;;;5098457;28;20630;-79
2023/02/08 10:44:54;;;;;;;38.22;22.08;;;0.10;1.00;;;;;;5097172;28;20191;-79
2023/02/08 10:47:36;;;;;;;43.13;22.85;;;0.30;99.90;;;;;;5097903;28;20190;-79
2023/02/08 10:50:09;;;;;;;37.70;21.40;;;0.50;1.00;;;;;;5098970;28;20286;-79
2023/02/08 10:52:36;;;;;;;40.53;23.42;;;;;;;;;;5099755;28;20652;-79
2023/02/08 10:55:03;;;;;;;42.97;22.75;;;;;;;;;;5097258;28;20257;-78
2023/02/08 10:57:34;;;;;;;36.78;22.58;;;0.00;1.00;;;;;;5104321;28;20202;-79
2023/02/08 11:00:04;;;;;;;40.42;22.98;;;0.10;1.00;;;;;;5099975;28;20221;-79
2023/02/08 11:02:33;;;;;;;38.20;21.95;;;0.10;1.00;;;;;;5097716;28;20206;-79
2023/02/08 11:05:04;;;;;;;42.58;22.88;;;0.10;1.00;;;;;;5095857;28;20198;-78
2023/02/08 11:07:32;;;;;;;37.45;23.58;;;0.10;1.00;;;;;;5107404;28;20193;-80
2023/02/08 11:10:15;;;;;;;38.75;22.25;;;0.60;99.90;;;;;;5107863;28;20228;-79
2023/02/08 11:12:53;;;;;;;39.42;22.70;;;0.10;99.90;;;;;;5101848;28;20186;-80
2023/02/08 11:15:26;;;;;;;44.47;23.92;;;0.60;99.90;;;;;;5096370;28;20229;-80
2023/02/08 11:17:57;;;;;;;40.83;22.48;;;0.30;1.00;;;;;;5096117;28;20190;-79
2023/02/08 11:20:31;;;;;;;41.90;21.75;;;0.50;1.00;;;;;;5101373;28;20197;-80
2023/02/08 11:22:59;;;;;;;33.95;21.80;;;0.80;99.90;;;;;;5100914;28;20220;-79
2023/02/08 11:25:36;;;;;;;46.90;25.50;;;0.70;1.00;;;;;;5101808;28;20214;-79
2023/02/08 11:28:04;;;;;;;35.15;22.52;;;0.70;1.00;;;;;;5102085;28;20567;-79
2023/02/08 11:30:32;;;;;;;36.70;22.05;;;;;;;;;;5099987;28;20221;-80
2023/02/08 11:33:18;;;;;;;35.85;21.80;;;0.80;1.00;;;;;;5098261;28;20206;-79
2023/02/08 11:36:11;;;;;;;43.08;23.17;;;0.80;1.00;;;;;;5107668;28;20265;-78
2023/02/08 11:38:42;;;;;;;37.92;22.52;;;0.80;1.00;;;;;;5106038;28;20190;-79
2023/02/08 11:41:17;;;;;;;38.00;22.85;;;0.80;1.00;;;;;;5102621;28;20186;-79
2023/02/08 11:43:55;;;;;;;43.75;23.30;;;0.90;1.00;;;;;;5095794;28;20224;-79
2023/02/08 11:46:24;;;;;;;40.67;23.95;;;0.90;1.00;;;;;;5097735;28;20221;-80
2023/02/08 11:48:52;;;;;;;42.33;22.10;;;0.90;1.00;;;;;;5097219;28;20206;-80
2023/02/08 11:51:30;;;;;;;39.92;21.30;;;0.80;1.00;;;;;;5097769;28;20623;-80
2023/02/08 11:53:59;;;;;;;36.40;21.10;;;;;;;;;;5097469;28;20562;-79
2023/02/08 11:56:28;;;;;;;34.58;21.38;;;0.80;1.00;;;;;;5097651;28;20233;-80
2023/02/08 11:59:05;;;;;;;39.15;23.02;;;0.80;1.00;;;;;;5095151;28;20686;-80
2023/02/08 12:01:33;;;;;;;41.03;24.88;;;0.90;1.00;;;;;;5100440;28;20186;-79
2023/02/08 12:04:03;;;;;;;36.70;21.40;;;0.60;99.90;;;;;;5098522;28;20676;-80
2023/02/08 12:06:57;;;;;;;42.05;20.90;;;0.90;1.00;;;;;;5098900;28;20218;-80
2023/02/08 12:09:59;;;;;;;34.67;22.73;;;0.80;99.90;;;;;;5098145;28;20279;-80
2023/02/08 12:12:34;;;;;;;43.40;24.20;;;1.00;1.00;;;;;;5062528;28;20215;-80
2023/02/08 12:15:10;;;;;;;45.38;24.25;;;1.00;1.00;;;;;;5098035;28;20292;-80
2023/02/08 12:17:59;;;;;;;39.70;22.23;;;1.30;99.90;;;;;;5098279;28;20213;-80
2023/02/08 12:20:45;;;;;;;32.85;21.98;;;1.10;1.00;;;;;;5098680;28;20611;-80
2023/02/08 12:23:39;;;;;;;35.78;22.45;;;1.10;1.00;;;;;;5098675;28;20182;-80
2023/02/08 12:26:17;;;;;;;42.90;24.13;;;1.20;1.00;;;;;;5098037;28;20300;-80
2023/02/08 12:28:56;;;;;;;38.72;22.85;;;1.00;99.90;;;;;;5102332;28;20217;-80
2023/02/08 12:31:33;;;;;;;35.40;22.50;;;1.30;1.00;;;;;;5110339;28;20193;-79
2023/02/08 12:34:12;;;;;;;35.92;22.05;;;1.20;1.00;;;;;;5108275;28;20209;-80
2023/02/08 12:42:54;;;;;;;40.15;23.10;;;1.20;1.00;;;;;;5099550;28;20192;-79
2023/02/08 12:45:45;;;;;;;41.75;23.35;;;1.10;1.00;;;;;;5099285;28;20598;-80
2023/02/08 12:48:40;;;;;;;36.13;22.15;;;1.20;99.90;;;;;;5106922;28;20186;-79
2023/02/08 12:51:16;;;;;;;37.97;23.15;;;1.20;1.00;;;;;;5107445;28;20265;-80
2023/02/08 12:53:50;;;;;;;43.38;24.63;;;1.30;1.00;;;;;;5101759;28;20186;-80
2023/02/08 12:56:23;;;;;;;37.70;22.48;;;1.10;99.90;;;;;;5100375;28;20232;-79
2023/02/08 12:58:52;;;;;;;38.33;22.27;;;1.40;1.00;;;;;;5101656;28;20186;-80
2023/02/08 13:01:22;;;;;;;43.35;24.90;;;1.40;1.00;;;;;;5099043;28;20206;-79
2023/02/08 13:03:54;;;;;;;39.67;21.42;;;1.50;1.00;;;;;;5098915;28;20186;-79
2023/02/08 13:06:26;;;;;;;36.97;21.30;;;1.50;1.00;;;;;;5097965;28;20289;-79
2023/02/08 13:08:59;;;;;;;37.55;22.73;;;1.60;99.90;;;;;;5103141;28;20249;-80
2023/02/08 13:11:34;;;;;;;42.15;23.35;;;1.50;1.00;;;;;;5101290;28;20653;-79
2023/02/08 13:14:06;;;;;;;41.42;21.70;;;1.60;1.00;;;;;;5106695;28;20236;-79
2023/02/08 13:16:37;;;;;;;36.67;22.20;;;1.60;1.00;;;;;;5099493;28;20256;-79
2023/02/08 13:19:23;;;;;;;38.30;21.92;;;1.60;1.00;;;;;;5100643;28;20192;-79
2023/02/08 13:21:53;;;;;;;31.83;20.73;;;1.70;1.00;;;;;;5102896;28;20189;-80
2023/02/08 13:24:28;;;;;;;34.17;21.58;;;1.60;99.90;;;;;;5100663;28;20194;-80
2023/02/08 13:26:56;;;;;;;43.33;23.10;;;1.70;1.00;;;;;;5098379;28;20583;-79
2023/02/08 13:29:24;;;;;;;36.30;22.33;;;1.80;1.00;;;;;;5099984;28;20223;-80
2023/02/08 13:31:56;;;;;;;36.38;21.17;;;2.30;1.00;;;;;;5098909;28;20210;-79
2023/02/08 13:34:29;;;;;;;37.20;22.90;;;1.60;1.00;;;;;;5102131;28;20187;-79
2023/02/08 13:37:00;;;;;;;41.92;23.40;;;1.60;1.00;;;;;;5106498;28;20661;-79
2023/02/08 13:39:35;;;;;;;45.65;22.80;;;1.50;99.90;;;;;;5101507;28;20182;-80
2023/02/08 13:42:06;;;;;;;42.47;22.02;;;1.70;1.00;;;;;;5104161;28;20209;-79